Time;durP1;ratioP1;P1;durP2;ratioP2;P2;SDS_P1;SDS_P2;PMS_P1;PMS_P2;Temp;Humidity;BMP_temperature;BMP_pressure;BME280_temperature;BME280_humidity;BME280_pressure;Samples;Min_cycle;Max_cycle;Signal;HPM_P1;HPM_P2
2021/10/23 00:00:27;;;;;;;37.47;4.90;;;6.90;99.90;;;;;;5033159;28;20048;-72
2021/10/23 00:02:53;;;;;;;36.20;5.28;;;6.80;99.90;;;;;;5033766;28;20489;-72
2021/10/23 00:05:19;;;;;;;50.33;5.32;;;6.70;99.90;;;;;;5032658;28;20037;-72
2021/10/23 00:07:44;;;;;;;32.97;4.95;;;6.70;99.90;;;;;;5033626;28;20022;-72
2021/10/23 00:10:10;;;;;;;46.72;6.63;;;6.60;99.90;;;;;;5041093;22;20033;-69
2021/10/23 00:12:36;;;;;;;43.83;6.00;;;6.60;99.90;;;;;;5052955;28;20040;-69
2021/10/23 00:15:03;;;;;;;41.00;5.50;;;6.50;99.90;;;;;;5053516;28;20033;-69
2021/10/23 00:17:29;;;;;;;42.90;5.90;;;6.50;99.90;;;;;;5045326;28;20480;-68
2021/10/23 00:19:58;;;;;;;51.97;5.18;;;6.40;99.90;;;;;;5052547;28;20082;-69
2021/10/23 00:22:24;;;;;;;33.40;5.55;;;6.40;99.90;;;;;;5052696;28;20025;-68
2021/10/23 00:24:49;;;;;;;27.30;4.57;;;6.40;99.90;;;;;;5043607;28;20100;-68
2021/10/23 00:27:15;;;;;;;44.53;5.50;;;6.40;99.90;;;;;;5036585;28;20028;-68
2021/10/23 00:29:40;;;;;;;28.95;5.45;;;6.40;99.90;;;;;;5052842;28;20013;-68
2021/10/23 00:32:06;;;;;;;51.65;6.35;;;6.50;99.90;;;;;;5052162;28;20503;-68
2021/10/23 00:34:31;;;;;;;44.97;5.93;;;6.60;99.90;;;;;;5052929;28;20029;-68
2021/10/23 00:36:57;;;;;;;37.22;5.15;;;6.70;99.90;;;;;;5053165;28;20029;-68
2021/10/23 00:39:22;;;;;;;47.25;4.97;;;6.80;99.90;;;;;;5052196;28;20021;-68
2021/10/23 00:41:48;;;;;;;48.22;5.43;;;6.90;99.90;;;;;;5052622;28;20040;-68
2021/10/23 00:44:37;;;;;;;37.97;5.38;;;7.00;99.90;;;;;;5052341;28;20108;-68
2021/10/23 00:47:09;;;;;;;31.58;5.15;;;7.20;99.90;;;;;;5052475;28;20029;-68
2021/10/23 00:49:36;;;;;;;44.83;4.75;;;7.40;99.90;;;;;;5052852;28;20111;-68
2021/10/23 00:52:03;;;;;;;38.20;5.07;;;7.60;99.90;;;;;;5052544;28;20029;-68
2021/10/23 00:54:30;;;;;;;32.03;4.97;;;7.60;99.90;;;;;;5051027;28;20116;-68
2021/10/23 00:56:56;;;;;;;37.40;4.43;;;7.70;99.90;;;;;;5052274;28;20028;-68
2021/10/23 00:59:22;;;;;;;33.28;3.58;;;7.70;99.90;;;;;;5034810;28;20499;-68
2021/10/23 01:01:49;;;;;;;22.33;4.43;;;7.60;99.90;;;;;;5052718;28;20064;-68
2021/10/23 01:04:15;;;;;;;23.73;4.68;;;7.50;99.90;;;;;;5053025;28;20028;-69
2021/10/23 01:06:41;;;;;;;33.05;5.65;;;7.50;99.90;;;;;;5051595;28;20029;-68
2021/10/23 01:09:07;;;;;;;29.42;3.65;;;7.50;99.90;;;;;;5052952;28;20029;-68
2021/10/23 01:11:33;;;;;;;34.42;4.53;;;7.50;99.90;;;;;;5052192;28;20044;-68
2021/10/23 01:13:59;;;;;;;52.40;8.20;;;7.60;99.90;;;;;;5052620;28;20021;-68
2021/10/23 01:16:25;;;;;;;32.05;4.35;;;7.70;99.90;;;;;;5052105;28;20028;-68
2021/10/23 01:18:51;;;;;;;30.90;5.90;;;7.70;99.90;;;;;;5052059;28;20035;-68
2021/10/23 01:21:23;;;;;;;41.55;5.10;;;7.60;99.90;;;;;;5052215;28;20045;-68
2021/10/23 01:23:50;;;;;;;44.22;4.75;;;7.50;99.90;;;;;;5052824;28;20439;-68
2021/10/23 01:26:21;;;;;;;19.10;3.35;;;7.40;99.90;;;;;;5052149;28;20029;-68
2021/10/23 01:28:47;;;;;;;23.05;3.70;;;7.30;99.90;;;;;;5053116;28;20028;-68
2021/10/23 01:32:03;;;;;;;33.38;4.60;;;7.20;99.90;;;;;;5051188;28;20021;-68
2021/10/23 01:34:28;;;;;;;33.75;5.18;;;7.20;99.90;;;;;;5034529;28;20075;-68
2021/10/23 01:36:57;;;;;;;31.95;4.35;;;7.20;99.90;;;;;;5054178;28;20033;-68
2021/10/23 01:39:23;;;;;;;38.28;4.53;;;7.30;99.90;;;;;;5056339;28;20025;-68
2021/10/23 01:41:50;;;;;;;29.23;4.75;;;7.50;99.90;;;;;;5054990;28;20108;-68
2021/10/23 01:44:16;;;;;;;43.60;4.65;;;7.50;99.90;;;;;;5056226;28;20036;-68
2021/10/23 01:46:43;;;;;;;24.38;3.55;;;7.50;99.90;;;;;;5055559;28;20029;-68
2021/10/23 01:49:09;;;;;;;55.10;6.80;;;7.50;99.90;;;;;;5038138;28;20017;-68
2021/10/23 01:51:36;;;;;;;36.17;5.35;;;7.60;99.90;;;;;;5054917;28;20029;-68
2021/10/23 01:54:06;;;;;;;24.80;3.80;;;7.50;99.90;;;;;;5055618;28;20081;-68
2021/10/23 01:56:33;;;;;;;39.47;4.65;;;7.60;99.90;;;;;;5055314;28;20484;-68
2021/10/23 01:58:59;;;;;;;37.83;4.10;;;7.80;99.90;;;;;;5055686;28;20033;-69
2021/10/23 02:01:25;;;;;;;27.05;3.95;;;7.90;99.90;;;;;;5055258;28;20032;-68
2021/10/23 02:03:50;;;;;;;29.05;3.90;;;7.90;99.90;;;;;;5055603;28;20104;-69
2021/10/23 02:06:16;;;;;;;32.00;4.38;;;7.90;99.90;;;;;;5054573;28;20048;-68
2021/10/23 02:08:41;;;;;;;28.90;4.70;;;7.90;99.90;;;;;;5055510;28;20035;-68
2021/10/23 02:11:07;;;;;;;26.05;3.97;;;7.90;99.90;;;;;;5054627;28;20032;-68
2021/10/23 02:13:33;;;;;;;29.25;4.38;;;7.80;99.90;;;;;;5054788;28;20021;-68
2021/10/23 02:15:58;;;;;;;24.35;4.38;;;7.80;99.90;;;;;;5054941;28;20035;-68
2021/10/23 02:18:24;;;;;;;30.30;5.22;;;7.70;99.90;;;;;;5054796;28;20107;-68
2021/10/23 02:20:49;;;;;;;43.05;4.57;;;7.70;99.90;;;;;;5054774;28;20108;-69
2021/10/23 02:23:15;;;;;;;30.73;4.30;;;7.60;99.90;;;;;;5037367;28;20025;-68
2021/10/23 02:25:40;;;;;;;28.83;5.20;;;7.60;99.90;;;;;;5054751;28;20499;-68
2021/10/23 02:28:06;;;;;;;35.97;4.80;;;7.50;99.90;;;;;;5054304;28;20032;-68
2021/10/23 02:30:32;;;;;;;27.05;4.65;;;7.40;99.90;;;;;;5055056;28;20469;-68
2021/10/23 02:32:57;;;;;;;29.63;4.25;;;7.40;99.90;;;;;;5054846;28;20082;-68
2021/10/23 02:35:23;;;;;;;23.90;3.70;;;7.30;99.90;;;;;;5055062;28;20025;-68
2021/10/23 02:37:48;;;;;;;24.13;2.97;;;7.20;99.90;;;;;;5054214;28;20431;-68
2021/10/23 02:40:14;;;;;;;24.58;4.03;;;7.10;99.90;;;;;;5054654;28;20512;-68
2021/10/23 02:42:40;;;;;;;34.03;4.15;;;7.00;99.90;;;;;;5054511;28;20488;-68
2021/10/23 02:45:07;;;;;;;24.75;3.92;;;6.80;99.90;;;;;;5054873;28;20036;-68
2021/10/23 02:47:33;;;;;;;35.53;3.67;;;6.70;99.90;;;;;;5054613;28;20063;-68
2021/10/23 02:49:59;;;;;;;34.15;4.45;;;6.80;99.90;;;;;;5053615;28;20050;-68
2021/10/23 02:52:25;;;;;;;25.63;4.10;;;6.90;99.90;;;;;;5055296;28;20096;-68
2021/10/23 02:54:50;;;;;;;34.42;4.43;;;7.00;99.90;;;;;;5054199;28;20049;-68
2021/10/23 02:57:16;;;;;;;30.60;5.80;;;7.10;99.90;;;;;;5054394;28;20527;-68
2021/10/23 02:59:43;;;;;;;31.42;4.60;;;7.10;99.90;;;;;;5054307;28;20029;-68
2021/10/23 03:02:09;;;;;;;40.45;6.07;;;7.10;99.90;;;;;;5054061;28;20128;-68
2021/10/23 03:04:35;;;;;;;23.70;3.72;;;7.20;99.90;;;;;;5054139;28;20528;-68
2021/10/23 03:07:00;;;;;;;37.92;5.97;;;7.20;99.90;;;;;;5054398;28;20469;-68
2021/10/23 03:09:26;;;;;;;40.97;4.50;;;7.30;99.90;;;;;;5053943;28;20068;-68
2021/10/23 03:11:51;;;;;;;33.88;4.88;;;7.30;99.90;;;;;;5054037;28;20059;-68
2021/10/23 03:14:17;;;;;;;33.60;3.58;;;7.20;99.90;;;;;;5053513;28;20431;-68
2021/10/23 03:16:42;;;;;;;43.55;4.60;;;7.20;99.90;;;;;;5054386;28;20025;-68
2021/10/23 03:19:08;;;;;;;30.20;4.15;;;7.20;99.90;;;;;;5053833;28;20421;-68
2021/10/23 03:21:34;;;;;;;34.67;6.20;;;7.10;99.90;;;;;;5053840;28;20025;-68
2021/10/23 03:23:59;;;;;;;20.35;4.05;;;7.00;99.90;;;;;;5054115;28;20028;-68
2021/10/23 03:26:25;;;;;;;25.02;4.20;;;6.90;99.90;;;;;;5035183;28;20063;-69
2021/10/23 03:28:51;;;;;;;28.88;4.20;;;6.70;99.90;;;;;;5054216;28;20025;-68
2021/10/23 03:31:16;;;;;;;24.25;3.58;;;6.50;99.90;;;;;;5053471;28;20029;-68
2021/10/23 03:33:42;;;;;;;21.80;3.60;;;6.40;99.90;;;;;;5053733;28;20024;-68
2021/10/23 03:36:07;;;;;;;17.48;3.45;;;6.20;99.90;;;;;;5053591;28;20083;-68
2021/10/23 03:38:33;;;;;;;25.73;2.67;;;6.20;99.90;;;;;;5053457;28;20091;-68
2021/10/23 03:40:59;;;;;;;27.75;3.80;;;6.00;99.90;;;;;;5053589;28;20560;-68
2021/10/23 03:43:24;;;;;;;18.50;2.70;;;6.00;99.90;;;;;;5052981;28;20087;-68
2021/10/23 03:45:50;;;;;;;26.38;3.78;;;6.00;99.90;;;;;;5053976;28;20071;-68
2021/10/23 03:48:16;;;;;;;33.45;4.90;;;6.00;99.90;;;;;;5053046;28;20029;-68
2021/10/23 03:50:41;;;;;;;28.95;5.03;;;6.00;99.90;;;;;;5053485;28;20047;-68
2021/10/23 03:53:07;;;;;;;33.80;4.60;;;6.10;99.90;;;;;;5053297;28;20036;-68
2021/10/23 03:55:32;;;;;;;25.58;4.10;;;6.20;99.90;;;;;;5053415;28;20071;-68
2021/10/23 03:57:58;;;;;;;24.55;3.55;;;6.20;99.90;;;;;;5053137;28;20056;-68
2021/10/23 04:00:23;;;;;;;28.50;4.20;;;6.20;99.90;;;;;;5052291;28;20029;-68
2021/10/23 04:02:49;;;;;;;49.15;4.95;;;6.20;99.90;;;;;;5053056;28;20068;-68
2021/10/23 04:05:14;;;;;;;32.10;4.20;;;6.20;99.90;;;;;;5053385;28;20025;-68
2021/10/23 04:07:40;;;;;;;44.92;5.00;;;6.30;99.90;;;;;;5052976;28;20040;-68
2021/10/23 04:10:06;;;;;;;31.25;4.13;;;6.30;99.90;;;;;;5052707;28;20027;-68
2021/10/23 04:12:32;;;;;;;27.65;3.10;;;6.20;99.90;;;;;;5053268;28;20155;-68
2021/10/23 04:14:59;;;;;;;37.38;4.32;;;6.10;99.90;;;;;;5052255;28;20100;-68
2021/10/23 04:17:25;;;;;;;37.42;4.45;;;6.00;99.90;;;;;;5053232;28;20029;-68
2021/10/23 04:19:51;;;;;;;27.50;3.65;;;5.90;99.90;;;;;;5053146;28;20108;-68
2021/10/23 04:22:16;;;;;;;18.70;2.58;;;5.90;99.90;;;;;;5053074;28;20033;-69
2021/10/23 04:24:42;;;;;;;33.85;3.40;;;5.90;99.90;;;;;;5052272;28;20029;-68
2021/10/23 04:27:08;;;;;;;39.63;5.18;;;5.90;99.90;;;;;;5053209;28;20025;-68
2021/10/23 04:29:33;;;;;;;51.85;4.88;;;6.00;99.90;;;;;;5052890;28;20464;-68
2021/10/23 04:31:59;;;;;;;27.05;3.65;;;5.90;99.90;;;;;;5052735;28;20052;-68
2021/10/23 04:34:25;;;;;;;29.23;4.28;;;5.90;99.90;;;;;;5052470;28;20029;-68
2021/10/23 04:36:51;;;;;;;42.05;4.60;;;5.90;99.90;;;;;;5052683;28;20033;-68
2021/10/23 04:39:16;;;;;;;29.40;4.43;;;5.90;99.90;;;;;;5052745;28;20036;-68
2021/10/23 04:41:42;;;;;;;25.88;4.03;;;6.00;99.90;;;;;;5052338;28;20484;-68
2021/10/23 04:44:08;;;;;;;29.88;3.78;;;6.00;99.90;;;;;;5052784;28;20031;-68
2021/10/23 04:46:33;;;;;;;31.05;4.00;;;6.10;99.90;;;;;;5053424;28;20464;-68
2021/10/23 04:48:59;;;;;;;23.15;4.10;;;6.10;99.90;;;;;;5052945;28;20029;-68
2021/10/23 04:51:24;;;;;;;36.85;5.07;;;6.20;99.90;;;;;;5052556;28;20029;-68
2021/10/23 04:53:50;;;;;;;27.05;4.35;;;6.30;99.90;;;;;;5052491;28;20027;-68
2021/10/23 04:56:17;;;;;;;39.42;4.90;;;6.30;99.90;;;;;;5052198;28;20104;-68
2021/10/23 04:58:42;;;;;;;29.23;4.22;;;6.40;99.90;;;;;;5052512;28;20025;-68
2021/10/23 05:01:08;;;;;;;32.42;4.07;;;6.40;99.90;;;;;;5052482;28;20028;-68
2021/10/23 05:03:33;;;;;;;25.08;4.07;;;6.40;99.90;;;;;;5052519;28;20104;-68
2021/10/23 05:05:59;;;;;;;25.80;4.10;;;6.50;99.90;;;;;;5052218;28;20036;-68
2021/10/23 05:08:25;;;;;;;30.95;5.18;;;6.60;99.90;;;;;;5052316;28;20025;-68
2021/10/23 05:10:50;;;;;;;26.45;4.00;;;6.70;99.90;;;;;;5052332;28;20495;-68
2021/10/23 05:13:16;;;;;;;33.25;4.57;;;6.90;99.90;;;;;;5056028;28;20023;-68
2021/10/23 05:15:42;;;;;;;30.63;4.82;;;7.00;99.90;;;;;;5056395;28;20032;-68
2021/10/23 05:18:08;;;;;;;20.58;3.30;;;7.00;99.90;;;;;;5056453;28;20021;-68
2021/10/23 05:20:33;;;;;;;32.30;3.97;;;6.90;99.90;;;;;;5056800;28;20021;-68
2021/10/23 05:22:59;;;;;;;48.70;5.75;;;6.80;99.90;;;;;;5055685;28;20025;-68
2021/10/23 05:25:25;;;;;;;26.90;4.55;;;6.70;99.90;;;;;;5056303;28;20500;-69
2021/10/23 05:27:50;;;;;;;29.70;3.75;;;6.60;99.90;;;;;;5055652;28;20116;-68
2021/10/23 05:30:16;;;;;;;23.15;3.55;;;6.80;99.90;;;;;;5056241;28;20108;-68
2021/10/23 05:32:41;;;;;;;20.77;3.75;;;7.10;99.90;;;;;;5055778;28;20040;-68
2021/10/23 05:35:07;;;;;;;23.23;3.80;;;7.20;99.90;;;;;;5056057;28;20039;-68
2021/10/23 05:37:33;;;;;;;13.45;3.50;;;7.30;99.90;;;;;;5055733;28;20029;-68
2021/10/23 05:39:58;;;;;;;20.77;3.38;;;7.20;99.90;;;;;;5055780;28;20025;-68
2021/10/23 05:42:24;;;;;;;30.98;3.13;;;7.10;99.90;;;;;;5055707;28;20029;-68
2021/10/23 05:44:50;;;;;;;43.60;3.80;;;7.00;99.90;;;;;;5056290;28;20056;-68
2021/10/23 05:47:15;;;;;;;16.48;3.28;;;7.00;99.90;;;;;;5055265;28;20029;-68
2021/10/23 05:49:41;;;;;;;22.98;3.40;;;7.00;99.90;;;;;;5038046;28;20029;-69
2021/10/23 05:52:07;;;;;;;29.35;3.30;;;7.00;99.90;;;;;;5054928;28;20079;-68
2021/10/23 05:54:38;;;;;;;19.42;2.70;;;7.10;99.90;;;;;;5055873;28;20075;-68
2021/10/23 05:57:09;;;;;;;27.73;2.92;;;7.00;99.90;;;;;;5055456;28;20036;-68
2021/10/23 05:59:43;;;;;;;21.80;3.92;;;6.90;99.90;;;;;;5056061;28;20051;-68
2021/10/23 06:02:51;;;;;;;;;;;6.90;99.90;;;;;;5055599;28;20032;-68
2021/10/23 06:05:00;;;;;;;17.23;2.80;;;7.00;99.90;;;;;;5049167;28;19962;-68
2021/10/23 06:07:28;;;;;;;13.63;3.28;;;7.10;99.90;;;;;;5037935;28;20025;-68
2021/10/23 06:09:56;;;;;;;21.45;3.33;;;7.10;99.90;;;;;;5055257;28;20075;-68
2021/10/23 06:12:22;;;;;;;17.45;2.78;;;7.00;99.90;;;;;;5055498;28;20036;-69
2021/10/23 06:14:48;;;;;;;24.65;3.40;;;6.90;99.90;;;;;;5054938;28;20017;-69
2021/10/23 06:17:13;;;;;;;21.35;3.63;;;6.80;99.90;;;;;;5054628;28;20029;-69
2021/10/23 06:19:39;;;;;;;19.98;3.35;;;6.70;99.90;;;;;;5055344;28;20126;-69
2021/10/23 06:22:06;;;;;;;24.58;3.92;;;6.60;99.90;;;;;;5054700;28;20032;-69
2021/10/23 06:24:32;;;;;;;22.77;3.42;;;6.60;99.90;;;;;;5055089;28;20083;-69
2021/10/23 06:26:57;;;;;;;11.10;2.63;;;6.60;99.90;;;;;;5055426;28;20037;-69
2021/10/23 06:29:23;;;;;;;25.20;3.40;;;6.50;99.90;;;;;;5054334;28;20047;-69
2021/10/23 06:31:48;;;;;;;21.15;3.03;;;6.40;99.90;;;;;;5055039;28;20021;-69
2021/10/23 06:34:14;;;;;;;21.83;2.78;;;6.40;99.90;;;;;;5054746;28;20036;-69
2021/10/23 06:36:40;;;;;;;16.15;2.65;;;6.20;99.90;;;;;;5055342;28;20029;-69
2021/10/23 06:39:05;;;;;;;20.60;2.72;;;6.10;99.90;;;;;;5054572;28;20033;-69
2021/10/23 06:41:31;;;;;;;24.42;4.13;;;6.00;99.90;;;;;;5054144;28;20500;-69
2021/10/23 06:43:57;;;;;;;22.70;3.40;;;6.00;99.90;;;;;;5054938;28;20056;-69
2021/10/23 06:46:24;;;;;;;42.33;4.38;;;6.00;99.90;;;;;;5054482;28;20048;-69
2021/10/23 06:48:50;;;;;;;27.13;3.88;;;6.10;99.90;;;;;;5054713;28;20492;-69
2021/10/23 06:51:16;;;;;;;26.02;3.35;;;6.10;99.90;;;;;;5054520;28;20063;-69
2021/10/23 06:53:42;;;;;;;22.45;4.35;;;6.20;99.90;;;;;;5054297;28;20025;-69
2021/10/23 06:56:07;;;;;;;23.73;4.45;;;6.20;99.90;;;;;;5054248;28;20392;-69
2021/10/23 06:58:33;;;;;;;26.13;3.53;;;6.30;99.90;;;;;;5054340;28;20028;-69
2021/10/23 07:00:58;;;;;;;27.50;3.42;;;6.50;99.90;;;;;;5054562;28;20024;-69
2021/10/23 07:03:24;;;;;;;31.10;4.35;;;6.60;99.90;;;;;;5054114;28;20484;-69
2021/10/23 07:05:52;;;;;;;35.20;4.03;;;6.80;99.90;;;;;;5054448;28;20035;-69
2021/10/23 07:08:17;;;;;;;38.63;4.00;;;6.90;99.90;;;;;;5052295;28;20040;-69
2021/10/23 07:10:43;;;;;;;15.55;2.67;;;6.90;99.90;;;;;;5054418;28;20029;-69
2021/10/23 07:13:08;;;;;;;20.70;3.50;;;6.90;99.90;;;;;;5053905;28;20108;-69
2021/10/23 07:15:34;;;;;;;24.08;3.10;;;6.90;99.90;;;;;;5054279;28;20456;-69
2021/10/23 07:17:59;;;;;;;14.15;2.25;;;6.90;99.90;;;;;;5053768;28;20027;-69
2021/10/23 07:20:25;;;;;;;24.38;4.10;;;6.90;99.90;;;;;;5053810;28;20025;-69
2021/10/23 07:22:52;;;;;;;40.33;4.57;;;6.90;99.90;;;;;;5053753;28;20021;-69
2021/10/23 07:25:18;;;;;;;40.00;4.38;;;6.90;99.90;;;;;;5054250;28;20066;-69
2021/10/23 07:27:44;;;;;;;33.30;4.05;;;7.00;99.90;;;;;;5053094;28;20025;-69
2021/10/23 07:30:10;;;;;;;29.08;3.90;;;7.10;99.90;;;;;;5053433;28;20032;-69
2021/10/23 07:32:38;;;;;;;35.58;4.70;;;7.30;99.90;;;;;;5053867;28;20059;-69
2021/10/23 07:35:04;;;;;;;27.23;4.45;;;7.40;99.90;;;;;;5052916;28;20032;-69
2021/10/23 07:37:30;;;;;;;24.60;3.95;;;7.50;99.90;;;;;;5053754;28;20399;-69
2021/10/23 07:39:57;;;;;;;17.40;2.78;;;7.60;99.90;;;;;;5053097;28;20107;-69
2021/10/23 07:42:23;;;;;;;43.20;4.55;;;7.70;99.90;;;;;;5033765;28;20539;-69
2021/10/23 07:44:48;;;;;;;20.23;3.30;;;7.70;99.90;;;;;;5034512;28;20034;-69
2021/10/23 07:47:14;;;;;;;23.65;3.15;;;7.80;99.90;;;;;;5053296;28;20033;-67
2021/10/23 07:49:40;;;;;;;24.65;4.18;;;7.80;99.90;;;;;;5053161;28;20477;-67
2021/10/23 07:52:06;;;;;;;19.10;3.00;;;7.70;99.90;;;;;;5053329;28;20443;-67
2021/10/23 07:54:31;;;;;;;25.23;3.58;;;7.70;99.90;;;;;;5052110;28;20028;-67
2021/10/23 07:56:58;;;;;;;31.05;5.53;;;7.80;99.90;;;;;;5053260;28;20117;-67
2021/10/23 07:59:26;;;;;;;22.20;3.75;;;7.90;99.90;;;;;;5053524;28;20473;-67
2021/10/23 08:01:56;;;;;;;29.27;3.30;;;8.20;99.90;;;;;;5052552;28;20033;-67
2021/10/23 08:04:21;;;;;;;17.08;3.55;;;8.40;99.90;;;;;;5053756;28;20369;-67
2021/10/23 08:06:47;;;;;;;27.00;3.40;;;8.80;99.90;;;;;;5053046;28;20040;-67
2021/10/23 08:09:12;;;;;;;27.60;3.30;;;9.00;99.90;;;;;;5053338;28;20032;-67
2021/10/23 08:11:43;;;;;;;18.13;3.05;;;9.00;99.90;;;;;;5052596;28;20029;-67
2021/10/23 08:14:09;;;;;;;14.77;2.83;;;9.00;99.90;;;;;;5035327;28;20029;-67
2021/10/23 08:16:35;;;;;;;16.75;2.67;;;9.00;99.90;;;;;;5053305;28;20013;-67
2021/10/23 08:19:01;;;;;;;22.40;3.08;;;9.00;99.90;;;;;;5053209;28;20432;-67
2021/10/23 08:21:27;;;;;;;20.20;3.10;;;9.00;99.90;;;;;;5052613;28;20025;-67
2021/10/23 08:23:53;;;;;;;17.58;3.05;;;8.90;99.90;;;;;;5052803;28;20024;-67
2021/10/23 08:26:18;;;;;;;19.27;3.38;;;8.80;99.90;;;;;;5053132;28;20032;-67
2021/10/23 08:28:44;;;;;;;18.45;3.05;;;8.70;99.90;;;;;;5052811;28;20492;-67
2021/10/23 08:31:09;;;;;;;17.75;2.90;;;8.70;99.90;;;;;;5053185;28;20021;-69
2021/10/23 08:33:35;;;;;;;25.05;3.25;;;8.90;99.90;;;;;;5052258;28;20357;-69
2021/10/23 08:36:00;;;;;;;21.85;3.13;;;9.00;99.90;;;;;;5053391;28;20028;-69
2021/10/23 08:38:26;;;;;;;17.85;3.53;;;9.20;99.90;;;;;;5052891;28;20050;-69
2021/10/23 08:40:53;;;;;;;33.90;3.50;;;9.30;99.90;;;;;;5052809;28;20021;-69
2021/10/23 08:43:19;;;;;;;23.20;3.33;;;9.50;99.90;;;;;;5053527;28;20056;-69
2021/10/23 08:45:47;;;;;;;16.00;2.78;;;9.90;99.90;;;;;;5054457;28;20033;-69
2021/10/23 08:48:14;;;;;;;10.00;1.92;;;10.20;99.90;;;;;;5056721;28;20040;-69
2021/10/23 08:50:40;;;;;;;17.40;3.10;;;10.50;99.90;;;;;;5056584;28;20365;-69
2021/10/23 08:53:06;;;;;;;19.02;2.55;;;10.70;99.90;;;;;;5057273;28;20028;-69
2021/10/23 08:55:32;;;;;;;18.45;3.15;;;10.70;99.90;;;;;;5056299;28;20029;-69
2021/10/23 08:57:58;;;;;;;13.20;2.28;;;10.60;99.90;;;;;;5056930;28;20384;-70
2021/10/23 09:00:24;;;;;;;11.45;1.83;;;10.50;99.90;;;;;;5056466;28;20544;-69
2021/10/23 09:02:50;;;;;;;22.23;4.93;;;10.40;99.90;;;;;;5056825;28;20039;-69
2021/10/23 09:05:16;;;;;;;25.58;2.88;;;10.50;99.90;;;;;;5056059;28;20031;-69
2021/10/23 09:07:44;;;;;;;14.80;1.85;;;10.70;99.90;;;;;;5056161;28;20480;-69
2021/10/23 09:10:09;;;;;;;14.68;2.33;;;10.80;99.90;;;;;;5056369;28;20116;-69
2021/10/23 09:12:37;;;;;;;10.63;2.00;;;11.00;99.90;;;;;;5056963;28;20060;-69
2021/10/23 09:15:16;;;;;;;18.02;2.50;;;11.20;99.90;;;;;;5054385;28;20017;-70
2021/10/23 09:17:48;;;;;;;9.55;2.42;;;11.50;99.90;;;;;;5054736;28;20131;-69
2021/10/23 09:20:15;;;;;;;14.30;2.35;;;11.60;99.90;;;;;;5056531;28;20025;-70
2021/10/23 09:22:46;;;;;;;16.92;3.00;;;11.70;99.90;;;;;;5043484;28;20086;-69
2021/10/23 09:25:19;;;;;;;9.95;1.85;;;11.80;99.90;;;;;;5055713;28;20037;-70
2021/10/23 09:28:01;;;;;;;15.43;2.30;;;11.60;99.90;;;;;;5056430;28;20033;-69
2021/10/23 09:30:33;;;;;;;15.75;2.22;;;11.40;99.90;;;;;;5056670;28;20538;-69
2021/10/23 09:33:09;;;;;;;14.00;2.50;;;11.20;99.90;;;;;;5054622;28;20122;-69
2021/10/23 09:35:36;;;;;;;15.70;2.50;;;11.20;99.90;;;;;;5054848;28;20052;-69
2021/10/23 09:38:02;;;;;;;10.23;2.30;;;11.10;99.90;;;;;;5076189;28;20105;-69
2021/10/23 09:40:30;;;;;;;16.05;2.78;;;11.20;99.90;;;;;;5076173;28;20103;-69
2021/10/23 09:43:11;;;;;;;20.50;3.72;;;11.10;99.90;;;;;;5073186;28;20218;-69
2021/10/23 09:45:55;;;;;;;14.27;2.53;;;11.10;99.90;;;;;;5055664;28;20033;-69
2021/10/23 09:48:30;;;;;;;21.55;4.05;;;11.10;99.90;;;;;;5054763;28;20113;-69
2021/10/23 09:51:25;;;;;;;11.57;2.58;;;11.10;99.90;;;;;;5056130;28;20032;-69
2021/10/23 09:53:52;;;;;;;20.90;2.65;;;11.20;99.90;;;;;;5055468;28;20025;-69
2021/10/23 09:56:32;;;;;;;19.70;3.28;;;11.20;99.90;;;;;;5054772;28;20111;-69
2021/10/23 09:59:00;;;;;;;17.42;3.13;;;11.10;99.90;;;;;;5055359;28;20017;-69
2021/10/23 10:01:40;;;;;;;23.95;2.67;;;11.10;99.90;;;;;;5055701;28;20044;-69
2021/10/23 10:04:09;;;;;;;21.42;3.35;;;11.20;99.90;;;;;;5055534;28;20507;-69
2021/10/23 10:06:41;;;;;;;21.35;3.15;;;11.30;99.90;;;;;;5055032;28;20041;-69
2021/10/23 10:09:11;;;;;;;18.00;3.38;;;11.30;99.90;;;;;;5055596;28;20504;-69
2021/10/23 10:11:38;;;;;;;25.70;3.25;;;11.50;99.90;;;;;;5055336;28;20471;-69
2021/10/23 10:14:07;;;;;;;18.58;2.88;;;11.70;99.90;;;;;;5055460;28;20120;-69
2021/10/23 10:16:32;;;;;;;11.18;2.45;;;11.70;99.90;;;;;;5053927;28;20136;-70
2021/10/23 10:18:58;;;;;;;15.65;2.75;;;11.80;99.90;;;;;;5056443;28;20053;-69
2021/10/23 10:21:25;;;;;;;28.60;3.25;;;12.00;99.90;;;;;;5055163;28;20029;-69
2021/10/23 10:23:54;;;;;;;17.65;3.00;;;11.90;99.90;;;;;;5054789;28;20028;-69
2021/10/23 10:26:32;;;;;;;16.17;2.35;;;11.80;99.90;;;;;;5055049;28;20029;-70
2021/10/23 10:29:12;;;;;;;15.18;3.53;;;11.60;99.90;;;;;;5055809;28;20078;-69
2021/10/23 10:32:30;;;;;;;22.73;3.58;;;11.50;99.90;;;;;;5053604;28;20419;-70
2021/10/23 10:35:28;;;;;;;25.90;3.63;;;11.40;99.90;;;;;;5054115;28;20033;-69
2021/10/23 10:38:01;;;;;;;20.02;3.05;;;11.40;99.90;;;;;;5054003;28;20045;-70
2021/10/23 10:40:55;;;;;;;22.77;3.30;;;11.40;99.90;;;;;;5054636;28;20108;-69
2021/10/23 10:43:20;;;;;;;21.52;2.88;;;11.50;99.90;;;;;;5034818;28;20036;-69
2021/10/23 10:45:49;;;;;;;15.23;2.45;;;11.40;99.90;;;;;;5035513;28;20489;-70
2021/10/23 10:48:39;;;;;;;13.18;2.58;;;11.30;99.90;;;;;;5034510;28;20037;-69
2021/10/23 10:51:05;;;;;;;16.08;2.78;;;11.20;99.90;;;;;;5054994;28;20025;-70
2021/10/23 10:53:35;;;;;;;13.98;2.65;;;11.10;99.90;;;;;;5054970;28;20469;-69
2021/10/23 10:56:10;;;;;;;17.52;2.85;;;11.00;99.90;;;;;;5054402;28;20021;-69
2021/10/23 10:58:41;;;;;;;22.33;2.95;;;10.90;99.90;;;;;;5054019;28;20036;-70
2021/10/23 11:01:25;;;;;;;11.23;2.03;;;10.90;99.90;;;;;;5053933;28;20033;-70
2021/10/23 11:04:11;;;;;;;21.45;2.53;;;11.00;99.90;;;;;;5054190;28;20024;-69
2021/10/23 11:06:48;;;;;;;26.40;2.80;;;11.10;99.90;;;;;;5054397;28;20382;-69
2021/10/23 11:09:20;;;;;;;14.57;2.50;;;11.10;99.90;;;;;;5054323;28;20017;-69
2021/10/23 11:11:47;;;;;;;19.92;2.58;;;11.20;99.90;;;;;;5053946;28;20037;-69
2021/10/23 11:14:21;;;;;;;24.98;3.30;;;11.20;99.90;;;;;;5054344;28;20025;-69
2021/10/23 11:16:49;;;;;;;15.27;2.00;;;11.30;99.90;;;;;;5053769;28;20033;-69
2021/10/23 11:19:21;;;;;;;16.90;2.22;;;11.40;99.90;;;;;;5052497;28;20025;-69
2021/10/23 11:21:54;;;;;;;18.10;2.58;;;11.50;99.90;;;;;;5053761;28;20025;-69
2021/10/23 11:24:23;;;;;;;18.60;2.33;;;11.50;99.90;;;;;;5054187;28;20115;-69
2021/10/23 11:26:49;;;;;;;15.77;2.92;;;11.60;99.90;;;;;;5053190;28;20020;-69
2021/10/23 11:29:33;;;;;;;15.20;2.85;;;11.60;99.90;;;;;;5054019;28;20070;-69
2021/10/23 11:32:00;;;;;;;9.57;2.03;;;11.70;99.90;;;;;;5053571;28;20112;-69
2021/10/23 11:34:26;;;;;;;11.10;2.22;;;11.60;99.90;;;;;;5053929;28;20025;-70
2021/10/23 11:37:18;;;;;;;14.93;2.75;;;11.60;99.90;;;;;;5053176;28;20063;-69
2021/10/23 11:40:00;;;;;;;21.35;2.70;;;11.60;99.90;;;;;;5050864;28;20052;-69
2021/10/23 11:42:30;;;;;;;15.23;2.15;;;11.80;99.90;;;;;;5053447;28;20469;-69
2021/10/23 11:44:56;;;;;;;24.75;2.58;;;12.00;99.90;;;;;;5054062;28;20033;-69
2021/10/23 11:47:27;;;;;;;15.98;2.42;;;12.20;99.90;;;;;;5053263;28;20504;-69
2021/10/23 11:49:57;;;;;;;20.27;3.83;;;12.40;99.90;;;;;;5053318;28;20523;-69
2021/10/23 11:52:30;;;;;;;21.65;2.50;;;12.50;99.90;;;;;;5053273;28;20025;-69
2021/10/23 11:55:03;;;;;;;20.33;2.65;;;12.50;99.90;;;;;;5053761;28;20025;-69
2021/10/23 11:57:42;;;;;;;19.73;2.50;;;12.60;99.90;;;;;;5052590;28;20052;-70
2021/10/23 12:00:17;;;;;;;18.85;3.40;;;12.80;99.90;;;;;;5053466;28;20492;-69
2021/10/23 12:02:50;;;;;;;19.27;3.22;;;12.90;99.90;;;;;;5052972;28;20029;-69
2021/10/23 12:05:21;;;;;;;24.85;3.20;;;12.80;99.90;;;;;;5052603;28;20032;-69
2021/10/23 12:08:07;;;;;;;25.85;3.58;;;12.60;99.90;;;;;;5053299;28;20415;-69
2021/10/23 12:10:34;;;;;;;12.27;3.58;;;12.60;99.90;;;;;;5066992;22;20033;-73
2021/10/23 12:13:13;;;;;;;18.45;4.50;;;12.70;99.90;;;;;;5035216;28;20036;-72
2021/10/23 12:15:39;;;;;;;18.30;2.42;;;12.90;99.90;;;;;;5052565;28;20488;-73
2021/10/23 12:18:07;;;;;;;21.45;2.33;;;13.00;99.90;;;;;;5053273;28;20107;-72
2021/10/23 12:20:35;;;;;;;12.45;1.65;;;13.10;99.90;;;;;;5051900;28;20055;-73
2021/10/23 12:23:03;;;;;;;15.95;2.75;;;13.00;99.90;;;;;;5053390;28;20055;-73
2021/10/23 12:25:29;;;;;;;15.10;2.95;;;12.90;99.90;;;;;;5052842;28;20525;-73
2021/10/23 12:28:02;;;;;;;15.63;2.00;;;12.80;99.90;;;;;;5052770;28;20037;-73
2021/10/23 12:30:29;;;;;;;16.23;3.28;;;12.60;99.90;;;;;;5052977;28;20025;-73
2021/10/23 12:32:59;;;;;;;13.40;2.42;;;12.60;99.90;;;;;;5053219;28;20452;-72
2021/10/23 12:35:27;;;;;;;22.50;3.55;;;12.50;99.90;;;;;;5052696;28;20025;-72
2021/10/23 12:37:56;;;;;;;16.33;2.70;;;12.50;99.90;;;;;;5052552;28;20036;-73
2021/10/23 12:40:29;;;;;;;11.65;2.35;;;12.40;99.90;;;;;;5052808;28;20540;-73
2021/10/23 12:42:58;;;;;;;19.70;2.38;;;12.30;99.90;;;;;;5052415;28;20449;-73
2021/10/23 12:45:26;;;;;;;17.42;3.65;;;12.30;99.90;;;;;;5052966;28;20049;-73
2021/10/23 12:47:53;;;;;;;17.95;2.67;;;12.50;99.90;;;;;;5052599;28;20096;-73